Time;durP1;ratioP1;P1;durP2;ratioP2;P2;SDS_P1;SDS_P2;PMS_P1;PMS_P2;Temp;Humidity;BMP_temperature;BMP_pressure;BME280_temperature;BME280_humidity;BME280_pressure;Samples;Min_cycle;Max_cycle;Signal;HPM_P1;HPM_P2
2022/05/09 00:02:15;;;;;;;11.65;4.60;;;17.30;70.60;;;;;;5012901;28;20033;-64
2022/05/09 00:04:41;;;;;;;13.43;4.80;;;17.30;70.60;;;;;;5013039;28;20076;-67
2022/05/09 00:07:06;;;;;;;12.63;4.65;;;17.20;70.50;;;;;;5013031;28;20034;-66
2022/05/09 00:09:32;;;;;;;9.23;4.72;;;17.30;70.70;;;;;;5013062;28;20032;-67
2022/05/09 00:11:59;;;;;;;10.57;4.60;;;17.20;70.70;;;;;;5012955;28;20456;-66
2022/05/09 00:14:25;;;;;;;9.57;4.57;;;17.20;70.70;;;;;;5012700;28;20045;-68
2022/05/09 00:16:51;;;;;;;7.28;4.10;;;17.20;70.90;;;;;;5012936;28;20041;-61
2022/05/09 00:19:20;;;;;;;11.93;4.82;;;17.20;70.90;;;;;;5012930;28;20030;-62
2022/05/09 00:21:47;;;;;;;13.40;4.72;;;17.20;70.90;;;;;;5012750;28;20014;-64
2022/05/09 00:24:15;;;;;;;14.52;5.57;;;17.20;70.90;;;;;;5014759;28;20030;-67
2022/05/09 00:26:45;;;;;;;9.80;4.72;;;17.10;71.10;;;;;;5016273;28;20038;-63
2022/05/09 00:29:12;;;;;;;9.13;4.70;;;17.20;71.10;;;;;;5016429;28;20034;-66
2022/05/09 00:31:39;;;;;;;9.70;4.68;;;17.10;71.10;;;;;;5016265;28;20029;-67
2022/05/09 00:34:06;;;;;;;10.95;5.18;;;17.10;71.30;;;;;;5016513;28;20104;-68
2022/05/09 00:36:31;;;;;;;12.30;5.32;;;17.10;71.30;;;;;;5016330;28;20026;-68
2022/05/09 00:39:01;;;;;;;11.25;4.78;;;17.10;71.40;;;;;;5016431;28;20530;-66
2022/05/09 00:41:37;;;;;;;10.38;5.13;;;17.10;71.50;;;;;;5016573;28;20033;-67
2022/05/09 00:44:09;;;;;;;15.10;5.47;;;17.00;71.40;;;;;;5016074;28;20030;-65
2022/05/09 00:46:35;;;;;;;10.73;5.13;;;17.10;71.50;;;;;;5016221;28;20025;-65
2022/05/09 00:49:19;;;;;;;13.30;5.63;;;17.00;71.60;;;;;;5016052;28;20022;-65
2022/05/09 00:51:55;;;;;;;15.15;5.50;;;17.00;71.60;;;;;;5016112;28;20022;-63
2022/05/09 00:54:21;;;;;;;12.35;5.40;;;17.00;71.80;;;;;;5016010;28;20042;-65
2022/05/09 00:56:55;;;;;;;13.27;5.40;;;17.00;72.00;;;;;;5016110;28;20030;-65
2022/05/09 00:59:22;;;;;;;13.38;5.30;;;16.90;72.00;;;;;;5014762;28;20076;-63
2022/05/09 01:01:48;;;;;;;11.82;5.35;;;16.90;72.10;;;;;;5015880;28;20018;-61
2022/05/09 01:04:19;;;;;;;10.45;4.70;;;16.80;72.20;;;;;;5015724;28;20030;-68
2022/05/09 01:06:45;;;;;;;12.47;5.10;;;16.80;72.30;;;;;;5015888;28;20097;-67
2022/05/09 01:09:11;;;;;;;11.93;5.03;;;16.80;72.40;;;;;;5015792;28;20104;-60
2022/05/09 01:11:38;;;;;;;12.48;4.80;;;16.80;72.50;;;;;;5015444;28;20467;-66
2022/05/09 01:14:09;;;;;;;10.80;4.72;;;16.80;72.60;;;;;;5015602;28;20574;-65
2022/05/09 01:16:36;;;;;;;10.55;5.03;;;16.80;72.60;;;;;;5015627;28;20092;-68
2022/05/09 01:19:13;;;;;;;10.75;5.53;;;16.80;72.70;;;;;;5015623;28;20072;-67
2022/05/09 01:21:40;;;;;;;8.60;5.18;;;16.70;72.70;;;;;;5015801;28;20080;-65
2022/05/09 01:24:18;;;;;;;10.55;5.25;;;16.70;72.80;;;;;;5015287;28;20038;-65
2022/05/09 01:26:44;;;;;;;13.07;5.90;;;16.70;72.90;;;;;;5015110;28;20495;-66
2022/05/09 01:29:32;;;;;;;12.10;5.65;;;16.70;73.00;;;;;;5015530;28;20065;-61
2022/05/09 01:31:58;;;;;;;14.10;5.57;;;16.60;73.10;;;;;;5015477;28;20460;-64
2022/05/09 01:34:26;;;;;;;11.65;5.43;;;16.60;73.10;;;;;;5014905;28;20022;-65
2022/05/09 01:36:57;;;;;;;12.05;5.07;;;16.60;73.10;;;;;;5015168;28;20063;-62
2022/05/09 01:39:24;;;;;;;11.83;5.93;;;16.60;73.10;;;;;;5015256;28;20018;-61
2022/05/09 01:41:51;;;;;;;9.70;5.68;;;16.60;73.10;;;;;;5014947;28;20269;-67
2022/05/09 01:44:17;;;;;;;7.80;4.97;;;16.60;73.30;;;;;;5015010;28;20062;-65
2022/05/09 01:49:30;;;;;;;13.48;5.28;;;16.60;73.40;;;;;;5015344;28;20051;-67
2022/05/09 01:51:58;;;;;;;11.57;5.00;;;16.50;73.30;;;;;;5014791;28;20018;-65
2022/05/09 01:54:23;;;;;;;12.85;5.70;;;16.50;73.40;;;;;;5014763;28;20079;-61
2022/05/09 01:56:49;;;;;;;16.83;6.57;;;16.50;73.50;;;;;;5014764;28;20209;-63
2022/05/09 01:59:15;;;;;;;12.45;5.65;;;16.50;73.50;;;;;;5014799;28;20077;-63
2022/05/09 02:01:51;;;;;;;12.93;5.63;;;16.50;73.60;;;;;;5014746;28;20100;-62
2022/05/09 02:04:17;;;;;;;11.98;5.60;;;16.50;73.70;;;;;;5014492;28;20037;-67
2022/05/09 02:06:42;;;;;;;12.02;5.75;;;16.50;73.60;;;;;;5014733;28;20182;-62
2022/05/09 02:09:09;;;;;;;10.25;6.25;;;16.40;73.80;;;;;;5014260;28;20021;-63
2022/05/09 02:11:35;;;;;;;12.23;5.07;;;16.40;73.80;;;;;;5013530;28;20497;-67
2022/05/09 02:14:02;;;;;;;13.60;5.32;;;16.40;73.80;;;;;;5014506;28;20021;-64
2022/05/09 02:16:28;;;;;;;13.18;6.00;;;16.40;74.00;;;;;;5014580;28;20026;-64
2022/05/09 02:18:53;;;;;;;11.10;5.10;;;16.40;73.90;;;;;;5014111;28;20026;-61
2022/05/09 02:21:19;;;;;;;9.75;4.53;;;16.40;73.90;;;;;;5014629;28;20541;-61
2022/05/09 02:23:45;;;;;;;13.35;5.88;;;16.30;73.80;;;;;;5014103;28;20037;-61
2022/05/09 02:26:11;;;;;;;11.70;6.00;;;16.30;73.90;;;;;;5014250;28;20471;-61
2022/05/09 02:28:37;;;;;;;12.48;5.95;;;16.30;73.80;;;;;;5014317;28;20439;-66
2022/05/09 02:31:03;;;;;;;8.63;5.03;;;16.30;73.70;;;;;;5014132;28;20053;-64
2022/05/09 02:33:29;;;;;;;16.15;5.28;;;16.20;73.40;;;;;;5014328;28;20530;-64
2022/05/09 02:35:55;;;;;;;14.52;5.40;;;16.30;73.30;;;;;;5014005;28;20101;-64
2022/05/09 02:38:21;;;;;;;9.27;5.05;;;16.20;73.10;;;;;;5013906;28;20114;-67
2022/05/09 02:40:47;;;;;;;12.73;5.43;;;16.20;73.10;;;;;;5014047;28;20025;-61
2022/05/09 02:43:12;;;;;;;11.52;4.68;;;16.20;73.00;;;;;;5014129;28;20022;-63
2022/05/09 02:45:41;;;;;;;12.95;5.43;;;16.20;72.90;;;;;;5013659;28;20018;-66
2022/05/09 02:48:08;;;;;;;13.50;4.90;;;16.10;72.90;;;;;;5012384;28;20025;-65
2022/05/09 02:50:33;;;;;;;12.25;4.68;;;16.10;72.80;;;;;;5013870;28;20022;-61
2022/05/09 02:52:59;;;;;;;13.20;5.05;;;16.10;72.70;;;;;;5013613;28;20387;-67
2022/05/09 02:55:24;;;;;;;9.82;5.10;;;16.10;72.90;;;;;;5013772;28;20026;-68
2022/05/09 02:57:50;;;;;;;11.68;4.40;;;16.10;72.80;;;;;;5007119;28;20077;-68
2022/05/09 03:00:24;;;;;;;11.10;4.40;;;16.00;72.60;;;;;;5001466;28;20550;-67
2022/05/09 03:05:37;;;;;;;10.23;4.00;;;16.00;72.80;;;;;;4993826;28;20129;-64
2022/05/09 03:08:03;;;;;;;8.32;4.70;;;16.00;72.50;;;;;;4993764;28;20037;-65
2022/05/09 03:10:31;;;;;;;13.88;5.22;;;16.00;72.40;;;;;;4993787;28;20053;-65
2022/05/09 03:13:01;;;;;;;10.55;4.85;;;15.90;72.40;;;;;;4994024;28;20018;-66
2022/05/09 03:15:33;;;;;;;14.85;5.10;;;15.90;72.70;;;;;;4993943;28;20029;-67
2022/05/09 03:17:58;;;;;;;11.00;4.90;;;15.90;72.60;;;;;;4993975;28;20054;-67
2022/05/09 03:20:24;;;;;;;17.77;5.28;;;15.80;72.70;;;;;;4993962;28;20362;-67
2022/05/09 03:22:50;;;;;;;13.63;5.18;;;15.80;72.80;;;;;;4993626;28;20050;-64
2022/05/09 03:25:16;;;;;;;9.98;5.45;;;15.80;72.90;;;;;;4993718;28;20058;-63
2022/05/09 03:27:43;;;;;;;9.65;4.40;;;15.80;72.90;;;;;;4993719;28;20049;-68
2022/05/09 03:30:10;;;;;;;14.23;5.20;;;15.80;73.10;;;;;;4993699;28;20085;-66
2022/05/09 03:32:36;;;;;;;10.48;4.78;;;15.80;73.10;;;;;;4994007;28;20089;-65
2022/05/09 03:35:03;;;;;;;8.27;4.60;;;15.80;73.00;;;;;;4993758;28;20022;-67
2022/05/09 03:37:30;;;;;;;42.08;6.63;;;15.80;73.70;;;;;;4993260;28;20032;-66
2022/05/09 03:39:55;;;;;;;10.10;4.90;;;15.80;72.60;;;;;;4993753;28;20030;-64
2022/05/09 03:42:21;;;;;;;10.48;5.18;;;15.70;72.80;;;;;;4993491;28;20035;-64
2022/05/09 03:44:47;;;;;;;15.40;4.60;;;15.70;72.50;;;;;;4992372;28;20105;-61
2022/05/09 03:47:13;;;;;;;12.05;4.80;;;15.70;72.40;;;;;;4993540;28;20376;-62
2022/05/09 03:49:38;;;;;;;12.95;5.22;;;15.70;72.40;;;;;;4993808;28;20033;-63
2022/05/09 03:52:04;;;;;;;10.70;4.75;;;15.80;72.20;;;;;;4991706;28;20037;-61
2022/05/09 03:54:30;;;;;;;14.27;4.68;;;15.70;72.30;;;;;;4993852;28;20038;-65
2022/05/09 03:56:56;;;;;;;10.93;4.72;;;15.60;72.50;;;;;;4993624;28;20018;-61
2022/05/09 03:59:21;;;;;;;11.95;5.28;;;15.60;72.20;;;;;;4997530;28;20030;-64
2022/05/09 04:01:47;;;;;;;13.25;5.07;;;15.70;72.40;;;;;;4997495;28;20380;-61
2022/05/09 04:04:13;;;;;;;11.82;4.90;;;15.60;72.60;;;;;;4997267;28;20399;-65
2022/05/09 04:06:38;;;;;;;13.45;5.35;;;15.50;72.90;;;;;;4996959;28;20026;-62
2022/05/09 04:09:05;;;;;;;16.00;5.65;;;15.50;72.60;;;;;;4997515;28;20105;-63
2022/05/09 04:11:31;;;;;;;10.15;5.40;;;15.60;72.20;;;;;;4997324;28;20022;-60
2022/05/09 04:13:56;;;;;;;10.45;5.50;;;15.60;72.30;;;;;;4997503;28;20391;-60
2022/05/09 04:19:06;;;;;;;15.98;4.93;;;15.60;72.20;;;;;;4997362;28;20092;-60
2022/05/09 04:21:32;;;;;;;13.23;5.50;;;15.50;72.20;;;;;;4996748;28;20460;-65
2022/05/09 04:23:58;;;;;;;20.77;5.57;;;15.50;72.20;;;;;;4997353;28;20040;-62
2022/05/09 04:26:30;;;;;;;10.27;5.30;;;15.40;72.60;;;;;;4996627;28;20034;-62
2022/05/09 04:28:55;;;;;;;10.82;5.20;;;15.40;72.60;;;;;;4997257;28;20036;-61
2022/05/09 04:31:22;;;;;;;14.43;5.95;;;15.40;72.30;;;;;;4996948;28;20030;-62
2022/05/09 04:33:48;;;;;;;12.25;5.07;;;15.50;72.20;;;;;;4996653;28;20018;-66
2022/05/09 04:36:14;;;;;;;16.65;5.05;;;15.40;72.30;;;;;;4996840;28;20034;-65
2022/05/09 04:38:42;;;;;;;14.27;4.97;;;15.40;72.30;;;;;;5010480;28;20042;-61
2022/05/09 04:41:10;;;;;;;16.48;5.38;;;15.40;72.40;;;;;;5015321;28;20116;-66
2022/05/09 04:43:36;;;;;;;9.55;5.55;;;15.40;72.40;;;;;;5015960;28;20037;-66
2022/05/09 04:46:04;;;;;;;9.73;5.25;;;15.40;72.20;;;;;;5016090;28;20487;-66
2022/05/09 04:48:30;;;;;;;9.93;4.60;;;15.40;72.30;;;;;;5015644;28;20105;-66
2022/05/09 04:50:56;;;;;;;12.43;5.78;;;15.40;72.10;;;;;;5015289;28;20092;-65
2022/05/09 04:53:22;;;;;;;16.52;5.00;;;15.40;72.20;;;;;;5015257;28;20037;-67
2022/05/09 04:55:48;;;;;;;9.75;4.68;;;15.40;74.20;;;;;;5016082;28;20030;-67
2022/05/09 04:58:16;;;;;;;10.18;4.60;;;15.40;74.50;;;;;;5016690;28;20486;-66
2022/05/09 05:00:43;;;;;;;9.60;4.13;;;15.40;74.40;;;;;;5011491;28;20079;-67
2022/05/09 05:03:08;;;;;;;10.55;4.30;;;15.40;74.70;;;;;;5016683;28;20078;-67
2022/05/09 05:05:34;;;;;;;10.43;4.65;;;15.40;74.70;;;;;;5024140;28;20104;-67
2022/05/09 05:08:00;;;;;;;10.85;4.50;;;15.40;74.70;;;;;;5012529;28;20038;-67
2022/05/09 05:10:27;;;;;;;11.73;4.53;;;15.40;75.10;;;;;;5012894;28;20035;-66
2022/05/09 05:12:53;;;;;;;10.60;4.35;;;15.40;74.20;;;;;;5013817;28;20100;-67
2022/05/09 05:15:18;;;;;;;15.35;4.60;;;15.40;74.20;;;;;;5013379;28;20105;-67
2022/05/09 05:17:44;;;;;;;12.32;4.85;;;15.40;74.70;;;;;;5012929;28;20030;-67
2022/05/09 05:20:13;;;;;;;11.93;4.72;;;15.40;74.30;;;;;;5013535;28;20550;-67
2022/05/09 05:22:41;;;;;;;11.82;4.68;;;15.40;74.30;;;;;;5014749;28;20038;-67
2022/05/09 05:25:08;;;;;;;10.38;4.50;;;15.40;74.10;;;;;;5015709;28;20026;-67
2022/05/09 05:27:34;;;;;;;11.82;5.05;;;15.40;74.30;;;;;;5015195;28;20079;-67
2022/05/09 05:30:00;;;;;;;10.00;4.40;;;15.40;74.40;;;;;;5013126;28;20018;-63
2022/05/09 05:32:28;;;;;;;10.70;4.80;;;15.40;74.30;;;;;;5012256;28;20464;-67
2022/05/09 05:34:54;;;;;;;10.55;4.97;;;15.40;74.20;;;;;;5014318;28;20034;-66
2022/05/09 05:37:20;;;;;;;12.52;5.07;;;15.40;74.30;;;;;;5010093;28;20029;-62
2022/05/09 05:39:47;;;;;;;9.48;4.70;;;15.40;74.40;;;;;;5014257;28;20033;-67
2022/05/09 05:42:18;;;;;;;11.73;5.15;;;15.40;74.60;;;;;;5011719;28;20272;-62
2022/05/09 05:44:47;;;;;;;11.75;5.18;;;15.40;74.40;;;;;;5010411;28;20060;-62
2022/05/09 05:47:15;;;;;;;12.55;5.43;;;15.40;75.20;;;;;;5001295;28;20022;-63
2022/05/09 05:49:41;;;;;;;15.75;5.43;;;15.40;74.40;;;;;;5012401;28;20026;-66
2022/05/09 05:52:07;;;;;;;11.45;4.38;;;15.50;74.70;;;;;;5011480;28;20033;-65
2022/05/09 05:54:36;;;;;;;13.30;5.22;;;15.60;74.70;;;;;;5012118;28;20109;-63
2022/05/09 05:57:03;;;;;;;11.40;5.07;;;15.70;74.00;;;;;;5014472;28;20018;-64
2022/05/09 05:59:29;;;;;;;14.85;4.38;;;15.70;73.70;;;;;;5010255;28;20502;-66
2022/05/09 06:01:55;;;;;;;13.82;5.22;;;15.80;75.80;;;;;;5007373;28;20030;-65
2022/05/09 06:04:21;;;;;;;18.75;5.40;;;15.90;74.70;;;;;;5011537;28;20034;-63
2022/05/09 06:06:47;;;;;;;12.43;5.10;;;16.00;74.30;;;;;;5005188;28;20444;-63
2022/05/09 06:09:13;;;;;;;10.93;5.38;;;16.00;73.40;;;;;;5010985;28;20069;-66
2022/05/09 06:11:42;;;;;;;11.25;5.53;;;16.10;73.50;;;;;;5012291;28;20356;-66
2022/05/09 06:14:12;;;;;;;11.55;5.20;;;16.20;72.50;;;;;;5012843;28;20034;-66
2022/05/09 06:16:38;;;;;;;13.77;6.20;;;16.20;72.20;;;;;;5012642;28;20045;-66
2022/05/09 06:19:04;;;;;;;17.02;6.25;;;16.30;72.10;;;;;;5012028;28;20038;-65
2022/05/09 06:21:33;;;;;;;14.98;7.10;;;16.30;71.80;;;;;;5012928;28;20045;-66
2022/05/09 06:24:00;;;;;;;14.20;5.60;;;16.40;71.40;;;;;;5013962;28;20038;-66
2022/05/09 06:26:25;;;;;;;16.10;6.80;;;16.40;72.10;;;;;;5013894;28;20030;-65
2022/05/09 06:28:51;;;;;;;16.77;6.90;;;16.50;71.80;;;;;;5014365;28;20475;-67
2022/05/09 06:31:17;;;;;;;21.92;8.48;;;16.60;71.70;;;;;;5014018;28;20083;-66
2022/05/09 06:33:43;;;;;;;15.68;8.23;;;16.60;71.50;;;;;;5014211;28;20022;-65
2022/05/09 06:36:09;;;;;;;19.88;9.50;;;16.70;70.70;;;;;;5014160;28;20095;-64
2022/05/09 06:38:34;;;;;;;22.52;9.63;;;16.70;70.50;;;;;;5014097;28;20022;-63
2022/05/09 06:41:01;;;;;;;22.48;9.38;;;16.70;70.70;;;;;;5014020;28;20034;-63
2022/05/09 06:43:27;;;;;;;17.92;8.38;;;16.80;70.60;;;;;;5012636;28;20076;-62
2022/05/09 06:45:52;;;;;;;18.45;9.40;;;16.80;71.00;;;;;;5013682;28;20464;-64
2022/05/09 06:48:18;;;;;;;25.45;10.35;;;16.80;71.10;;;;;;5014071;28;20163;-63
2022/05/09 06:50:44;;;;;;;25.40;10.95;;;16.90;70.50;;;;;;5013848;28;20037;-63
2022/05/09 06:53:11;;;;;;;22.45;9.70;;;16.90;70.30;;;;;;5014012;28;20107;-64
2022/05/09 06:55:37;;;;;;;17.10;8.48;;;17.00;70.70;;;;;;5013568;28;20030;-62
2022/05/09 06:58:07;;;;;;;25.10;9.32;;;17.00;70.50;;;;;;5013694;28;20037;-65
2022/05/09 07:00:33;;;;;;;17.55;8.52;;;17.10;70.90;;;;;;5011894;28;20107;-64
2022/05/09 07:02:59;;;;;;;25.27;10.80;;;17.10;70.60;;;;;;5013645;28;20080;-63
2022/05/09 07:05:24;;;;;;;23.58;10.48;;;17.20;71.00;;;;;;5013671;28;20030;-62
2022/05/09 07:07:50;;;;;;;24.88;10.93;;;17.30;70.00;;;;;;5013617;28;20029;-65
2022/05/09 07:10:17;;;;;;;16.95;8.43;;;17.30;69.60;;;;;;5013536;28;20033;-65
2022/05/09 07:12:54;;;;;;;17.90;8.90;;;17.40;70.20;;;;;;5013658;28;20076;-67
2022/05/09 07:15:27;;;;;;;16.00;8.73;;;17.40;70.60;;;;;;5013289;28;20041;-63
2022/05/09 07:17:53;;;;;;;20.40;8.93;;;17.40;70.60;;;;;;5013793;28;20026;-65
2022/05/09 07:20:21;;;;;;;19.63;9.02;;;17.50;70.50;;;;;;5013504;28;20038;-66
2022/05/09 07:22:50;;;;;;;17.08;8.45;;;17.60;70.30;;;;;;5013575;28;20116;-64
2022/05/09 07:25:17;;;;;;;18.55;9.30;;;17.60;71.00;;;;;;5013187;28;20113;-66
2022/05/09 07:27:42;;;;;;;18.60;9.90;;;17.60;69.90;;;;;;5013339;28;20038;-63
2022/05/09 07:30:18;;;;;;;19.70;9.68;;;17.70;69.20;;;;;;5013807;28;20611;-67
2022/05/09 07:32:46;;;;;;;18.17;9.55;;;17.80;69.10;;;;;;5012951;28;20026;-67
2022/05/09 07:35:14;;;;;;;17.98;9.55;;;17.80;69.70;;;;;;5013314;28;20033;-67
2022/05/09 07:37:40;;;;;;;15.07;6.47;;;17.90;69.60;;;;;;5013236;28;20149;-65
2022/05/09 07:40:10;;;;;;;17.00;7.75;;;17.80;70.60;;;;;;5013415;28;20514;-67
2022/05/09 07:42:35;;;;;;;15.88;8.70;;;17.90;70.80;;;;;;5011596;28;20022;-66
2022/05/09 07:45:03;;;;;;;13.60;7.85;;;18.00;69.00;;;;;;5013199;28;20113;-66
2022/05/09 07:47:29;;;;;;;11.88;7.35;;;18.10;68.70;;;;;;5013018;28;20447;-65
2022/05/09 07:49:54;;;;;;;12.52;5.68;;;18.10;69.80;;;;;;5013511;28;20101;-67
2022/05/09 07:52:20;;;;;;;14.77;7.70;;;18.10;70.20;;;;;;5013260;28;20041;-66
2022/05/09 07:54:46;;;;;;;11.88;7.75;;;18.10;69.70;;;;;;5012937;28;20026;-67
2022/05/09 07:57:13;;;;;;;16.80;8.65;;;18.20;68.70;;;;;;5012775;28;20053;-67
2022/05/09 07:59:39;;;;;;;19.30;8.32;;;18.30;68.40;;;;;;5013145;28;20034;-67
2022/05/09 08:02:04;;;;;;;14.27;6.28;;;18.30;68.80;;;;;;5012721;28;20026;-66
2022/05/09 08:04:30;;;;;;;15.02;7.47;;;18.40;69.40;;;;;;5012740;28;20034;-66
2022/05/09 08:06:55;;;;;;;14.10;6.28;;;18.40;68.80;;;;;;5012985;28;20025;-66
2022/05/09 08:09:21;;;;;;;11.05;5.22;;;18.50;68.10;;;;;;5013170;28;20038;-67
2022/05/09 08:11:47;;;;;;;12.50;4.65;;;18.50;68.80;;;;;;5012646;28;20033;-67
2022/05/09 08:14:12;;;;;;;11.30;6.00;;;18.50;69.50;;;;;;5013025;28;20025;-67
2022/05/09 08:16:40;;;;;;;11.70;6.10;;;18.60;68.50;;;;;;5012817;28;20014;-67
2022/05/09 08:19:05;;;;;;;12.80;5.60;;;18.60;68.60;;;;;;5012957;28;20087;-65
2022/05/09 08:21:31;;;;;;;15.35;7.13;;;18.70;68.20;;;;;;5013111;28;20046;-67
2022/05/09 08:23:59;;;;;;;12.88;4.97;;;18.80;67.30;;;;;;5012770;28;20038;-63
2022/05/09 08:26:25;;;;;;;9.68;3.88;;;18.70;68.30;;;;;;5012427;28;20105;-64
2022/05/09 08:28:56;;;;;;;13.13;5.43;;;18.80;68.50;;;;;;5012841;28;20448;-67
2022/05/09 08:31:22;;;;;;;9.73;4.95;;;18.80;67.30;;;;;;5012992;28;20018;-67
2022/05/09 08:33:50;;;;;;;12.45;4.93;;;18.90;68.10;;;;;;5012678;28;20033;-65
2022/05/09 08:36:45;;;;;;;9.05;3.70;;;18.90;67.50;;;;;;5013018;28;20026;-67
2022/05/09 08:39:08;;;;;;;8.43;3.33;;;19.00;66.50;;;;;;5012688;28;20117;-64
2022/05/09 08:41:55;;;;;;;9.02;4.25;;;19.00;67.50;;;;;;5012661;28;20483;-68
2022/05/09 08:44:40;;;;;;;11.20;4.47;;;19.00;66.90;;;;;;5013218;28;20054;-65
2022/05/09 08:47:25;;;;;;;9.68;4.07;;;19.10;66.00;;;;;;5016106;28;20025;-67
2022/05/09 08:50:16;;;;;;;7.13;3.75;;;19.20;64.10;;;;;;5016310;28;20026;-67
2022/05/09 08:52:57;;;;;;;9.88;5.00;;;19.20;65.20;;;;;;5016041;28;20068;-66
2022/05/09 08:55:27;;;;;;;8.25;4.97;;;19.30;64.00;;;;;;5015952;28;20419;-66
2022/05/09 08:58:02;;;;;;;11.27;5.13;;;19.30;64.70;;;;;;5015947;28;20037;-67
2022/05/09 09:00:29;;;;;;;6.53;3.15;;;19.30;63.90;;;;;;5015905;28;20484;-67
2022/05/09 09:03:14;;;;;;;5.70;2.80;;;19.40;65.90;;;;;;5015676;28;20110;-65
2022/05/09 09:05:44;;;;;;;8.82;2.75;;;19.40;65.30;;;;;;5015771;28;20065;-66
2022/05/09 09:08:51;;;;;;;8.27;3.03;;;19.40;65.20;;;;;;5015842;28;20026;-65
2022/05/09 09:11:28;;;;;;;6.50;3.08;;;19.40;64.40;;;;;;5017474;28;20037;-67
2022/05/09 09:14:10;;;;;;;6.30;2.70;;;19.40;62.70;;;;;;5015571;28;20068;-65
2022/05/09 09:16:35;;;;;;;6.45;2.20;;;19.50;61.70;;;;;;5015816;28;20029;-63
2022/05/09 09:19:16;;;;;;;9.20;2.17;;;19.50;60.90;;;;;;5015613;28;20033;-64
2022/05/09 09:21:57;;;;;;;8.93;3.28;;;19.60;61.10;;;;;;5015767;28;20033;-64
2022/05/09 09:24:56;;;;;;;5.32;2.28;;;19.60;62.40;;;;;;5014978;28;20038;-65
2022/05/09 09:27:27;;;;;;;4.90;1.80;;;19.60;63.80;;;;;;5015428;28;20038;-67
2022/05/09 09:29:59;;;;;;;6.40;1.92;;;19.60;60.70;;;;;;5015607;28;20060;-67
2022/05/09 09:32:25;;;;;;;8.07;2.40;;;19.70;60.40;;;;;;5015360;28;20026;-67
2022/05/09 09:34:59;;;;;;;5.78;2.25;;;19.70;60.10;;;;;;5015108;28;20032;-64
2022/05/09 09:37:36;;;;;;;5.20;1.70;;;19.80;60.00;;;;;;5015597;28;20037;-66
2022/05/09 09:40:04;;;;;;;7.75;2.33;;;19.70;59.80;;;;;;5014723;28;20084;-67
2022/05/09 09:42:29;;;;;;;6.80;2.38;;;19.80;60.00;;;;;;5015263;28;20022;-67
2022/05/09 09:44:58;;;;;;;4.10;1.90;;;19.80;61.40;;;;;;5015214;28;20037;-63
2022/05/09 09:47:26;;;;;;;5.90;2.03;;;19.80;64.20;;;;;;5015251;28;20018;-67
2022/05/09 09:50:13;;;;;;;6.05;2.25;;;19.80;64.80;;;;;;5015025;28;20105;-67
2022/05/09 09:52:48;;;;;;;4.32;1.75;;;19.80;63.00;;;;;;5015072;28;20026;-66
2022/05/09 09:55:24;;;;;;;6.88;2.47;;;19.80;64.40;;;;;;5014448;28;20053;-67
2022/05/09 09:57:50;;;;;;;5.57;2.08;;;19.90;60.60;;;;;;5014880;28;20038;-65
2022/05/09 10:00:25;;;;;;;7.78;2.25;;;19.90;60.10;;;;;;5014744;28;20021;-65
2022/05/09 10:02:52;;;;;;;7.60;2.45;;;20.00;60.70;;;;;;5014454;28;20022;-67
2022/05/09 10:05:30;;;;;;;6.72;2.38;;;20.00;59.50;;;;;;5014741;28;20368;-64
2022/05/09 10:07:55;;;;;;;11.77;2.72;;;20.00;60.20;;;;;;5014479;28;20104;-64
2022/05/09 10:10:23;;;;;;;3.83;1.88;;;20.00;59.30;;;;;;5014527;28;20112;-67
2022/05/09 10:12:54;;;;;;;4.15;1.83;;;20.00;63.30;;;;;;5014654;28;20068;-64
2022/05/09 10:15:28;;;;;;;4.47;1.80;;;20.00;61.90;;;;;;5014610;28;20101;-67
2022/05/09 10:17:54;;;;;;;6.68;2.10;;;20.10;61.50;;;;;;5014504;28;20475;-67
2022/05/09 10:20:38;;;;;;;6.40;2.50;;;20.00;60.00;;;;;;5014688;28;20473;-65
2022/05/09 10:26:29;;;;;;;7.53;2.58;;;20.10;60.90;;;;;;5014493;28;20569;-64
2022/05/09 10:28:59;;;;;;;5.30;1.75;;;20.20;58.80;;;;;;5014501;28;20022;-67
2022/05/09 10:31:26;;;;;;;4.22;1.67;;;20.20;60.60;;;;;;5014261;28;20018;-66
2022/05/09 10:33:55;;;;;;;5.38;1.90;;;20.20;61.80;;;;;;5014080;28;20057;-65
2022/05/09 10:36:29;;;;;;;5.53;1.58;;;20.20;60.30;;;;;;5013683;28;20033;-67
2022/05/09 10:39:08;;;;;;;7.00;1.95;;;20.20;59.50;;;;;;5014747;28;20134;-67
2022/05/09 10:41:41;;;;;;;4.60;1.70;;;20.30;58.40;;;;;;5014121;28;20030;-63
2022/05/09 10:44:17;;;;;;;6.53;1.70;;;20.20;62.20;;;;;;5014029;28;20030;-63
2022/05/09 10:46:54;;;;;;;5.25;2.17;;;20.30;61.10;;;;;;5014020;28;20364;-64
2022/05/09 10:49:24;;;;;;;7.70;2.28;;;20.30;60.00;;;;;;5013926;28;20018;-67
2022/05/09 10:52:04;;;;;;;7.65;2.33;;;20.30;58.20;;;;;;5013612;28;20125;-67
2022/05/09 10:54:43;;;;;;;5.22;2.10;;;20.30;58.10;;;;;;5014138;28;20113;-67
2022/05/09 10:57:17;;;;;;;8.70;1.58;;;20.40;60.40;;;;;;5014178;28;20026;-67
2022/05/09 10:59:45;;;;;;;5.55;2.03;;;20.30;60.70;;;;;;5013956;28;20056;-67
2022/05/09 11:02:25;;;;;;;6.07;1.85;;;20.40;58.40;;;;;;5013718;28;20014;-67
2022/05/09 11:04:50;;;;;;;3.70;1.38;;;20.40;60.60;;;;;;5013745;28;20514;-66
2022/05/09 11:07:43;;;;;;;9.82;2.17;;;20.40;61.80;;;;;;5012844;28;20026;-66
2022/05/09 11:10:19;;;;;;;5.97;1.95;;;20.40;60.80;;;;;;5013670;28;20113;-67
2022/05/09 11:13:02;;;;;;;7.38;2.08;;;20.40;61.70;;;;;;5013689;28;20467;-67
2022/05/09 11:15:50;;;;;;;4.20;1.80;;;20.50;61.30;;;;;;5013366;28;20386;-67
2022/05/09 11:18:39;;;;;;;6.63;2.33;;;20.40;62.50;;;;;;5013680;28;20100;-67
2022/05/09 11:21:32;;;;;;;5.63;1.88;;;20.40;60.80;;;;;;5011967;28;20029;-64
2022/05/09 11:24:17;;;;;;;9.35;1.90;;;20.50;61.40;;;;;;5012987;28;20494;-63
2022/05/09 11:27:00;;;;;;;5.20;1.25;;;20.50;61.90;;;;;;5013203;28;20060;-65
2022/05/09 11:29:48;;;;;;;4.22;1.45;;;20.50;62.90;;;;;;5013530;28;20499;-65
2022/05/09 11:32:26;;;;;;;7.70;1.65;;;20.50;63.00;;;;;;5015230;28;20037;-64
2022/05/09 11:35:05;;;;;;;3.38;1.70;;;20.50;63.30;;;;;;5013046;28;20422;-64
2022/05/09 11:37:50;;;;;;;4.80;1.45;;;20.60;63.40;;;;;;5013293;28;20026;-64
2022/05/09 11:40:31;;;;;;;7.15;2.38;;;20.50;62.80;;;;;;5013247;28;20022;-65
2022/05/09 11:46:23;;;;;;;5.05;1.63;;;20.60;58.80;;;;;;5013144;28;20185;-64
2022/05/09 11:49:14;;;;;;;4.18;1.63;;;20.70;61.10;;;;;;5012912;28;20033;-64
2022/05/09 11:51:49;;;;;;;6.40;2.22;;;20.70;62.60;;;;;;5013170;28;20487;-64
2022/05/09 11:54:35;;;;;;;4.13;1.50;;;20.70;62.50;;;;;;5013018;28;20026;-66
2022/05/09 11:57:09;;;;;;;3.72;1.40;;;20.70;63.10;;;;;;5013182;28;20080;-67
2022/05/09 11:59:37;;;;;;;3.72;1.60;;;20.70;63.10;;;;;;5013291;28;20032;-66
2022/05/09 12:02:03;;;;;;;4.93;1.50;;;20.70;63.10;;;;;;5013354;28;20111;-66
2022/05/09 12:04:41;;;;;;;6.53;2.70;;;20.70;63.20;;;;;;5012631;28;20034;-68
2022/05/09 12:07:27;;;;;;;4.60;1.58;;;20.80;61.90;;;;;;5012940;28;20072;-66
2022/05/09 12:10:15;;;;;;;4.07;1.60;;;20.80;63.40;;;;;;5021779;28;20042;-66
2022/05/09 12:12:45;;;;;;;7.97;1.83;;;20.80;63.90;;;;;;5012898;28;20361;-67
2022/05/09 12:15:33;;;;;;;7.18;2.83;;;20.80;63.40;;;;;;5012952;28;20044;-64
2022/05/09 12:17:58;;;;;;;3.40;1.42;;;20.80;61.70;;;;;;5012608;28;20083;-67
2022/05/09 12:20:27;;;;;;;2.63;1.13;;;20.90;63.30;;;;;;5016391;28;20116;-68
2022/05/09 12:22:56;;;;;;;3.38;1.38;;;20.90;63.30;;;;;;5016759;28;20036;-66
2022/05/09 12:25:47;;;;;;;8.82;2.38;;;20.90;63.50;;;;;;5016608;28;20079;-67
2022/05/09 12:28:26;;;;;;;4.35;1.90;;;20.90;63.30;;;;;;5023004;28;20042;-66
2022/05/09 12:30:52;;;;;;;5.78;2.05;;;20.90;63.50;;;;;;5016485;28;20032;-67
2022/05/09 12:33:21;;;;;;;5.18;1.38;;;20.90;63.50;;;;;;5016387;28;20033;-66
2022/05/09 12:35:51;;;;;;;3.65;1.42;;;20.90;63.50;;;;;;5016586;28;20037;-68
2022/05/09 12:38:23;;;;;;;4.40;1.60;;;21.00;63.70;;;;;;5016528;28;20076;-68
2022/05/09 12:41:07;;;;;;;4.88;1.70;;;21.00;63.80;;;;;;5016405;28;20547;-64
2022/05/09 12:43:35;;;;;;;4.07;1.73;;;21.00;63.70;;;;;;5016099;28;20116;-65
2022/05/09 12:46:03;;;;;;;2.83;1.70;;;21.00;63.70;;;;;;5016491;28;20101;-64
2022/05/09 12:48:29;;;;;;;8.63;2.45;;;21.10;63.90;;;;;;5015819;28;20032;-68
2022/05/09 12:51:06;;;;;;;5.97;2.45;;;21.10;63.00;;;;;;5016441;28;20018;-65
2022/05/09 12:53:33;;;;;;;5.80;3.10;;;21.10;63.50;;;;;;5016111;28;20094;-65
2022/05/09 12:56:17;;;;;;;9.93;4.05;;;21.00;62.20;;;;;;5016053;28;20025;-65
2022/05/09 12:58:45;;;;;;;6.45;3.47;;;21.10;61.30;;;;;;5016063;28;20038;-64
2022/05/09 13:01:23;;;;;;;5.03;3.53;;;21.20;61.40;;;;;;5015935;28;20453;-66
2022/05/09 13:03:52;;;;;;;5.28;2.22;;;21.20;61.90;;;;;;5015771;28;20573;-64
2022/05/09 13:06:23;;;;;;;3.63;1.50;;;21.20;63.10;;;;;;5015741;28;20014;-65
2022/05/09 13:08:50;;;;;;;4.28;1.60;;;21.20;63.70;;;;;;5015916;28;20026;-64
2022/05/09 13:11:20;;;;;;;4.78;1.65;;;21.30;63.90;;;;;;5015657;28;20018;-64